Time;durP1;ratioP1;P1;durP2;ratioP2;P2;SDS_P1;SDS_P2;PMS_P1;PMS_P2;Temp;Humidity;BMP_temperature;BMP_pressure;BME280_temperature;BME280_humidity;BME280_pressure;Samples;Min_cycle;Max_cycle;Signal;HPM_P1;HPM_P2
2022/07/21 00:00:22;;;;;;;9.38;4.55;;;;;;;13.64;72.15;100283.84;1685660;84;21172;-56
2022/07/21 00:03:28;;;;;;;9.15;4.58;;;;;;;13.60;72.18;100282.55;1676256;85;21216;-55
2022/07/21 00:06:35;;;;;;;6.42;4.47;;;;;;;13.57;72.18;100280.71;1685549;84;21232;-55
2022/07/21 00:09:43;;;;;;;6.17;4.45;;;;;;;13.53;72.20;100276.12;1690237;82;21236;-56
2022/07/21 00:12:48;;;;;;;6.25;4.05;;;;;;;13.49;72.25;100272.08;1690667;83;21287;-56
2022/07/21 00:15:53;;;;;;;6.83;4.87;;;;;;;13.46;72.29;100280.19;1690616;85;21240;-55
2022/07/21 00:19:02;;;;;;;8.23;4.30;;;;;;;13.44;72.36;100269.92;1690625;85;21216;-56
2022/07/21 00:22:10;;;;;;;7.80;3.87;;;;;;;13.42;72.39;100263.77;1690537;83;21239;-56
2022/07/21 00:25:17;;;;;;;8.48;4.67;;;;;;;13.40;72.43;100280.97;1674229;85;21212;-57
2022/07/21 00:28:25;;;;;;;6.83;4.35;;;;;;;13.38;72.50;100277.56;1675181;84;21276;-55
2022/07/21 00:31:32;;;;;;;7.87;4.42;;;;;;;13.36;72.54;100270.57;1690586;83;21227;-55
2022/07/21 00:34:38;;;;;;;8.18;4.33;;;;;;;13.35;72.62;100272.45;1690612;85;21188;-57
2022/07/21 00:37:45;;;;;;;6.97;3.80;;;;;;;13.34;72.67;100265.78;1690112;83;21244;-56
2022/07/21 00:40:50;;;;;;;7.50;4.08;;;;;;;13.34;72.73;100265.27;1690323;84;21209;-54
2022/07/21 00:43:57;;;;;;;12.25;3.98;;;;;;;13.35;72.80;100260.63;1666413;85;21277;-55
2022/07/21 00:47:04;;;;;;;7.05;3.47;;;;;;;13.34;72.83;100258.40;1683233;84;21315;-55
2022/07/21 00:50:12;;;;;;;8.15;3.40;;;;;;;13.33;72.85;100254.47;1683195;85;21212;-54
2022/07/21 00:53:20;;;;;;;8.13;3.72;;;;;;;13.33;72.91;100263.55;1683181;85;21217;-55
2022/07/21 00:56:28;;;;;;;6.35;3.52;;;;;;;13.32;72.94;100259.11;1683296;84;21386;-54
2022/07/21 00:59:36;;;;;;;7.00;3.52;;;;;;;13.31;72.96;100253.80;1683239;85;21284;-55
2022/07/21 01:02:44;;;;;;;5.47;3.30;;;;;;;13.29;72.96;100251.26;1683153;84;21313;-55
2022/07/21 01:05:49;;;;;;;3.92;2.95;;;;;;;13.27;73.01;100250.59;1683251;85;21208;-55
2022/07/21 01:08:56;;;;;;;6.42;3.50;;;;;;;13.26;73.04;100265.91;1682853;82;21221;-56
2022/07/21 01:12:06;;;;;;;5.87;3.10;;;;;;;13.24;73.09;100268.86;1678505;84;21232;-56
2022/07/21 01:15:15;;;;;;;8.50;3.50;;;;;;;13.22;73.11;100266.82;1678585;85;21362;-56
2022/07/21 01:18:21;;;;;;;9.65;3.35;;;;;;;13.20;73.15;100266.19;1662781;85;21436;-54
2022/07/21 01:21:43;;;;;;;4.95;2.85;;;;;;;13.18;73.17;100262.77;1678851;84;21284;-56
2022/07/21 01:24:49;;;;;;;7.87;2.90;;;;;;;13.15;73.22;100260.42;1678912;84;21236;-57
2022/07/21 01:27:56;;;;;;;5.22;3.20;;;;;;;13.13;73.27;100269.38;1678396;84;21272;-57
2022/07/21 01:31:02;;;;;;;4.40;3.25;;;;;;;13.11;73.30;100266.51;1676406;84;21290;-55
2022/07/21 01:34:09;;;;;;;6.00;3.10;;;;;;;13.09;73.30;100268.08;1677373;85;21407;-57
2022/07/21 01:37:16;;;;;;;7.10;3.40;;;;;;;13.06;73.33;100273.11;1678522;84;21252;-57
2022/07/21 01:43:47;;;;;;;5.15;3.33;;;;;;;13.01;73.42;100273.69;1677929;85;21260;-56
2022/07/21 01:46:56;;;;;;;3.60;2.95;;;;;;;13.00;73.46;100280.72;1678104;84;21306;-55
2022/07/21 01:50:02;;;;;;;4.95;3.00;;;;;;;12.97;73.50;100275.08;1677850;85;21177;-58
2022/07/21 01:53:08;;;;;;;10.18;3.17;;;;;;;12.95;73.55;100269.46;1677935;84;21221;-57
2022/07/21 01:56:16;;;;;;;8.70;3.50;;;;;;;12.95;73.64;100279.94;1677894;84;21256;-54
2022/07/21 01:59:23;;;;;;;8.93;2.75;;;;;;;12.96;73.70;100279.39;1678748;84;21268;-56
2022/07/21 02:02:29;;;;;;;13.32;3.10;;;;;;;12.94;73.75;100272.72;1677106;84;21236;-55
2022/07/21 02:05:35;;;;;;;6.25;3.02;;;;;;;12.94;73.76;100275.47;1677674;85;21236;-55
2022/07/21 02:08:45;;;;;;;8.18;3.10;;;;;;;12.95;73.82;100281.83;1678475;85;21351;-57
2022/07/21 02:11:51;;;;;;;4.22;2.98;;;;;;;12.95;73.83;100281.31;1672722;84;21224;-55
2022/07/21 02:14:57;;;;;;;4.45;2.60;;;;;;;12.94;73.89;100274.09;1686196;85;21197;-57
2022/07/21 02:18:05;;;;;;;3.90;2.60;;;;;;;12.95;73.94;100274.44;1686119;84;21268;-58
2022/07/21 02:21:13;;;;;;;3.98;2.55;;;;;;;12.97;73.95;100276.99;1683056;83;21274;-57
2022/07/21 02:24:18;;;;;;;3.47;2.62;;;;;;;12.98;74.00;100280.92;1684062;84;21200;-56
2022/07/21 02:27:25;;;;;;;7.37;2.67;;;;;;;13.00;74.07;100276.60;1686085;83;21259;-56
2022/07/21 02:30:31;;;;;;;7.28;2.55;;;;;;;13.02;74.10;100274.52;1686102;85;21239;-58
2022/07/21 02:33:38;;;;;;;5.95;2.83;;;;;;;13.03;74.14;100270.20;1686255;85;21220;-56
2022/07/21 02:36:45;;;;;;;5.60;3.10;;;;;;;13.04;74.14;100274.67;1686074;83;21299;-55
2022/07/21 02:39:50;;;;;;;3.47;2.62;;;;;;;13.03;74.13;100261.95;1686095;85;21305;-55
2022/07/21 02:42:56;;;;;;;4.22;2.70;;;;;;;13.05;74.16;100259.88;1686078;84;21378;-55
2022/07/21 02:46:03;;;;;;;5.10;2.75;;;;;;;13.08;74.23;100262.77;1686118;83;21200;-54
2022/07/21 02:49:10;;;;;;;4.83;2.65;;;;;;;13.09;74.23;100258.97;1686243;85;21361;-57
2022/07/21 02:52:17;;;;;;;5.00;2.85;;;;;;;13.10;74.26;100251.91;1686108;84;21271;-56
2022/07/21 02:55:24;;;;;;;5.42;2.87;;;;;;;13.14;74.31;100253.23;1686083;85;21304;-55
2022/07/21 02:58:32;;;;;;;6.62;2.80;;;;;;;13.18;74.34;100261.40;1686188;85;21212;-58
2022/07/21 03:01:38;;;;;;;7.60;2.87;;;;;;;13.19;74.34;100261.72;1686124;84;21572;-56
2022/07/21 03:04:41;;;;;;;3.17;2.42;;;;;;;13.23;74.37;100264.41;1686256;85;21343;-57
2022/07/21 03:07:48;;;;;;;3.90;2.77;;;;;;;13.26;74.39;100263.16;1686223;84;21263;-57
2022/07/21 03:10:56;;;;;;;9.23;2.87;;;;;;;13.31;74.46;100260.17;1686166;85;21398;-56
2022/07/21 03:14:07;;;;;;;7.28;2.80;;;;;;;13.34;74.48;100258.40;1684122;85;21264;-56
2022/07/21 03:17:15;;;;;;;10.65;2.90;;;;;;;13.39;74.52;100250.41;1639215;85;21286;-57
2022/07/21 03:20:26;;;;;;;5.62;2.92;;;;;;;13.45;74.58;100255.12;1637790;86;21220;-57
2022/07/21 03:23:33;;;;;;;6.05;2.85;;;;;;;13.49;74.62;100253.66;1666459;85;21260;-58
2022/07/21 03:26:39;;;;;;;5.45;2.95;;;;;;;13.54;74.66;100252.55;1684404;84;21244;-56
2022/07/21 03:29:48;;;;;;;3.25;2.40;;;;;;;13.62;74.67;100243.84;1684331;85;21248;-57
2022/07/21 03:32:55;;;;;;;3.02;2.52;;;;;;;13.69;74.71;100248.34;1684315;84;21224;-57
2022/07/21 03:36:00;;;;;;;4.35;3.02;;;;;;;13.76;74.75;100245.64;1684329;84;21216;-57
2022/07/21 03:39:09;;;;;;;4.40;2.65;;;;;;;13.82;74.75;100236.59;1684424;85;21330;-60
2022/07/21 03:42:15;;;;;;;6.37;2.90;;;;;;;13.89;74.82;100245.20;1684386;84;21364;-58
2022/07/21 03:45:24;;;;;;;7.17;2.92;;;;;;;13.97;74.86;100242.85;1684342;85;21344;-58
2022/07/21 03:48:31;;;;;;;4.10;2.80;;;;;;;14.03;74.86;100244.28;1684448;85;21213;-59
2022/07/21 03:51:39;;;;;;;4.70;2.87;;;;;;;14.09;74.88;100239.34;1684365;84;21299;-57
2022/07/21 03:54:46;;;;;;;4.12;3.10;;;;;;;14.17;74.89;100231.44;1636461;86;21265;-61
2022/07/21 03:57:55;;;;;;;4.75;2.60;;;;;;;14.24;74.91;100230.97;1632052;86;21228;-58
2022/07/21 04:01:03;;;;;;;7.45;2.92;;;;;;;14.30;74.93;100226.87;1637795;85;21205;-59
2022/07/21 04:04:13;;;;;;;6.78;2.70;;;;;;;14.38;74.97;100224.50;1639578;86;21228;-60
2022/07/21 04:07:19;;;;;;;6.58;3.35;;;;;;;14.45;74.98;100229.50;1635811;86;21296;-60
2022/07/21 04:10:33;;;;;;;7.33;2.98;;;;;;;14.52;75.01;100231.25;1637958;86;21328;-59
2022/07/21 04:13:41;;;;;;;5.97;2.67;;;;;;;14.60;75.05;100236.55;1651084;81;21208;-60
2022/07/21 04:16:48;;;;;;;8.63;3.00;;;;;;;14.69;75.05;100240.00;1656218;85;21268;-59
2022/07/21 04:19:55;;;;;;;6.33;2.52;;;;;;;14.76;75.07;100234.00;1656794;85;21296;-61
2022/07/21 04:23:01;;;;;;;7.03;3.50;;;;;;;14.81;75.09;100235.58;1656366;85;21236;-59
2022/07/21 04:26:11;;;;;;;8.13;3.08;;;;;;;14.89;75.14;100233.50;1656675;85;21243;-61
2022/07/21 04:29:19;;;;;;;5.53;2.80;;;;;;;14.98;75.14;100232.80;1660987;85;21212;-58
2022/07/21 04:32:27;;;;;;;10.63;3.47;;;;;;;15.03;75.11;100236.61;1678184;84;21256;-59
2022/07/21 04:35:36;;;;;;;5.35;2.80;;;;;;;15.08;75.13;100237.36;1677606;85;21224;-59
2022/07/21 04:38:43;;;;;;;7.97;2.62;;;;;;;15.15;75.14;100230.48;1678133;85;21224;-60
2022/07/21 04:41:52;;;;;;;6.95;2.90;;;;;;;15.21;75.17;100230.50;1678060;84;21792;-61
2022/07/21 04:45:01;;;;;;;6.72;3.08;;;;;;;15.30;75.18;100221.52;1675870;85;21225;-61
2022/07/21 04:48:08;;;;;;;3.98;2.60;;;;;;;15.38;75.20;100219.41;1676182;85;21256;-58
2022/07/21 04:51:15;;;;;;;5.75;3.02;;;;;;;15.48;75.26;100225.38;1676172;85;21786;-59
2022/07/21 04:54:20;;;;;;;4.65;2.60;;;;;;;15.60;75.33;100227.81;1658999;85;21229;-57
2022/07/21 04:57:32;;;;;;;7.85;3.52;;;;;;;15.70;75.35;100226.00;1676236;85;21264;-59
2022/07/21 05:00:41;;;;;;;4.03;3.10;;;;;;;15.77;75.36;100219.45;1676671;84;21269;-57
2022/07/21 05:03:52;;;;;;;5.75;3.00;;;;;;;15.88;75.38;100222.08;1646103;85;21223;-59
2022/07/21 05:06:59;;;;;;;4.95;3.52;;;;;;;15.95;75.34;100215.48;1631731;85;21304;-59
2022/07/21 05:10:05;;;;;;;8.28;3.45;;;;;;;16.00;75.29;100212.06;1629106;88;21193;-60
2022/07/21 05:13:12;;;;;;;7.12;3.20;;;;;;;16.03;75.27;100213.05;1681471;85;21252;-58
2022/07/21 05:16:21;;;;;;;5.85;2.90;;;;;;;16.07;75.28;100215.69;1631796;87;21248;-58
2022/07/21 05:19:28;;;;;;;3.77;2.77;;;;;;;16.13;75.29;100216.20;1655163;84;21601;-59
2022/07/21 05:22:34;;;;;;;4.90;2.75;;;;;;;16.19;75.26;100218.09;1634079;86;21313;-60
2022/07/21 05:25:42;;;;;;;7.50;3.30;;;;;;;16.22;75.27;100217.69;1654735;85;21216;-63
2022/07/21 05:28:53;;;;;;;4.53;3.25;;;;;;;16.28;75.29;100213.50;1657152;85;21239;-57
2022/07/21 05:32:02;;;;;;;7.65;3.40;;;;;;;16.38;75.34;100207.52;1656368;85;21235;-59
2022/07/21 05:35:11;;;;;;;6.92;3.30;;;;;;;16.48;75.35;100211.23;1622142;87;21231;-60
2022/07/21 05:38:23;;;;;;;6.03;2.90;;;;;;;16.58;75.42;100205.59;1629183;88;21223;-56
2022/07/21 05:41:32;;;;;;;7.72;2.90;;;;;;;16.69;75.46;100199.37;1642387;84;22165;-59
2022/07/21 05:44:44;;;;;;;5.47;2.52;;;;;;;16.79;75.50;100204.43;1655812;86;21652;-59
2022/07/21 05:47:53;;;;;;;7.15;2.92;;;;;;;16.86;75.40;100193.64;1657559;85;21244;-61
2022/07/21 05:51:03;;;;;;;8.23;2.90;;;;;;;16.95;75.43;100197.83;1655362;86;21267;-59
2022/07/21 05:54:14;;;;;;;9.88;2.65;;;;;;;17.04;75.39;100194.28;1653168;84;21216;-61
2022/07/21 05:57:20;;;;;;;6.58;2.67;;;;;;;17.11;75.40;100189.02;1655034;86;21315;-60
2022/07/21 06:00:30;;;;;;;5.60;2.77;;;;;;;17.22;75.49;100188.30;1653141;85;21446;-60
2022/07/21 06:03:35;;;;;;;4.92;3.05;;;;;;;17.34;75.58;100194.83;1629939;86;21232;-59
2022/07/21 06:06:45;;;;;;;3.12;2.77;;;;;;;17.46;75.56;100188.05;1658643;85;21613;-60
2022/07/21 06:09:51;;;;;;;4.92;2.80;;;;;;;17.55;75.51;100188.10;1654677;86;21247;-60
2022/07/21 06:13:01;;;;;;;7.20;3.02;;;;;;;17.65;75.52;100184.27;1656622;84;21299;-60
2022/07/21 06:16:23;;;;;;;7.37;2.77;;;;;;;17.75;75.43;100191.53;1655423;81;21859;-59
2022/07/21 06:19:31;;;;;;;4.20;2.20;;;;;;;17.83;75.38;100185.71;1656890;86;21268;-59
2022/07/21 06:22:39;;;;;;;4.25;2.55;;;;;;;17.89;75.34;100185.65;1656514;85;21789;-62
2022/07/21 06:25:54;;;;;;;3.47;2.10;;;;;;;18.01;75.39;100179.36;1672391;83;21532;-54
2022/07/21 06:29:03;;;;;;;4.25;2.17;;;;;;;18.17;75.46;100167.13;1685116;84;21220;-56
2022/07/21 06:32:10;;;;;;;3.95;2.08;;;;;;;18.41;75.43;100175.12;1685072;84;21323;-55
2022/07/21 06:35:18;;;;;;;5.17;2.22;;;;;;;18.61;75.24;100183.50;1684677;84;21292;-54
2022/07/21 06:38:28;;;;;;;4.50;1.60;;;;;;;18.76;74.99;100169.20;1673100;85;21272;-54
2022/07/21 06:41:39;;;;;;;4.53;1.82;;;;;;;18.89;74.79;100175.42;1684113;84;21815;-56
2022/07/21 06:44:50;;;;;;;4.83;1.67;;;;;;;18.97;74.60;100167.31;1684362;84;21228;-56
2022/07/21 06:48:12;;;;;;;;;;;;;;;19.04;74.53;100170.28;1691790;83;21729;-58
2022/07/21 06:51:16;;;;;;;5.35;1.80;;;;;;;19.11;74.42;100168.27;1684852;84;20262;-57
2022/07/21 06:54:35;;;;;;;7.67;2.20;;;;;;;19.15;74.30;100168.09;1677435;83;21195;-55
2022/07/21 06:57:42;;;;;;;4.95;1.90;;;;;;;19.28;74.30;100162.94;1655851;85;21268;-54
2022/07/21 07:00:55;;;;;;;8.13;1.77;;;;;;;19.43;74.18;100165.23;1684093;85;21664;-55
2022/07/21 07:04:03;;;;;;;3.27;1.70;;;;;;;19.56;74.13;100151.14;1674327;85;21805;-54
2022/07/21 07:07:15;;;;;;;6.15;1.57;;;;;;;19.70;74.05;100141.49;1662185;85;21315;-54
2022/07/21 07:10:23;;;;;;;2.83;1.45;;;;;;;19.81;73.91;100142.89;1684170;85;21239;-54
2022/07/21 07:13:34;;;;;;;3.92;1.60;;;;;;;19.93;73.83;100144.29;1665942;84;21232;-54
2022/07/21 07:16:45;;;;;;;3.58;1.40;;;;;;;20.07;73.78;100138.78;1667722;82;21248;-52
2022/07/21 07:19:54;;;;;;;5.55;1.70;;;;;;;20.21;73.75;100145.27;1682077;85;21240;-52
2022/07/21 07:23:02;;;;;;;5.22;1.47;;;;;;;20.34;73.67;100159.45;1681608;84;21338;-53
2022/07/21 07:26:11;;;;;;;4.30;1.27;;;;;;;20.42;73.50;100147.38;1682728;84;21228;-55
2022/07/21 07:29:20;;;;;;;3.20;1.10;;;;;;;20.55;73.50;100153.24;1681351;85;21984;-55
2022/07/21 07:32:29;;;;;;;6.78;1.17;;;;;;;20.66;73.24;100144.02;1678636;84;21771;-54
2022/07/21 07:35:39;;;;;;;10.68;1.85;;;;;;;20.76;73.09;100128.89;1680615;85;21208;-54
2022/07/21 07:38:48;;;;;;;5.67;1.50;;;;;;;20.89;73.04;100136.95;1679367;85;21817;-55
2022/07/21 07:41:55;;;;;;;8.25;1.30;;;;;;;20.99;72.89;100129.38;1701757;84;21295;-54
2022/07/21 07:45:05;;;;;;;2.72;1.20;;;;;;;21.08;72.83;100128.73;1676884;84;21745;-53
2022/07/21 07:48:13;;;;;;;8.10;1.30;;;;;;;21.18;72.71;100127.53;1675894;84;21267;-56
2022/07/21 07:51:22;;;;;;;4.78;1.10;;;;;;;21.24;72.55;100143.23;1673782;85;21259;-53
2022/07/21 07:54:42;;;;;;;6.28;1.50;;;;;;;21.24;72.44;100130.70;1680637;85;21832;-60
2022/07/21 07:58:07;;;;;;;3.52;1.17;;;;;;;21.28;72.41;100126.30;1667643;84;21279;-60
2022/07/21 08:01:16;;;;;;;7.10;1.27;;;;;;;21.32;72.36;100121.94;1681009;83;21241;-57
2022/07/21 08:04:24;;;;;;;5.00;1.27;;;;;;;21.37;72.34;100128.99;1678679;83;21237;-53
2022/07/21 08:07:49;;;;;;;3.72;1.02;;;;;;;21.35;72.22;100121.97;1668743;84;21833;-56
2022/07/21 08:11:11;;;;;;;3.95;1.07;;;;;;;21.43;72.36;100128.52;1672695;85;21975;-56
2022/07/21 08:14:18;;;;;;;3.02;1.02;;;;;;;21.51;72.25;100113.62;1680940;83;21252;-54
2022/07/21 08:17:24;;;;;;;2.35;1.22;;;;;;;21.58;72.18;100118.47;1630364;84;21265;-57
2022/07/21 08:20:32;;;;;;;8.50;1.00;;;;;;;21.57;71.90;100110.36;1642821;86;21216;-55
2022/07/21 08:23:39;;;;;;;4.05;1.00;;;;;;;21.60;71.99;100119.06;1686241;83;21220;-54
2022/07/21 08:26:49;;;;;;;4.20;1.15;;;;;;;21.70;71.96;100101.13;1684341;85;21275;-55
2022/07/21 08:30:00;;;;;;;5.90;1.02;;;;;;;21.87;71.97;100100.58;1684892;85;21255;-55
2022/07/21 08:33:08;;;;;;;7.00;1.30;;;;;;;21.99;71.77;100092.94;1679589;85;21219;-54
2022/07/21 08:36:21;;;;;;;4.65;0.90;;;;;;;22.01;71.62;100086.56;1639341;86;21279;-55
2022/07/21 08:39:43;;;;;;;6.17;0.90;;;;;;;22.09;71.43;100086.12;1685690;83;21303;-55
2022/07/21 08:42:55;;;;;;;5.60;0.93;;;;;;;22.13;71.23;100096.22;1686075;85;21676;-54
2022/07/21 08:46:09;;;;;;;2.25;0.80;;;;;;;22.13;71.12;100094.28;1660078;85;21252;-55
2022/07/21 08:49:17;;;;;;;1.30;0.80;;;;;;;22.09;70.89;100101.45;1685630;85;21224;-55
2022/07/21 08:52:27;;;;;;;4.62;0.90;;;;;;;22.03;70.80;100086.30;1685111;85;21255;-56
2022/07/21 08:55:43;;;;;;;7.25;0.80;;;;;;;22.06;70.85;100092.22;1695686;83;21263;-57
2022/07/21 08:58:53;;;;;;;1.95;0.70;;;;;;;22.18;70.87;100091.53;1678164;83;21212;-56
2022/07/21 09:02:04;;;;;;;5.42;0.93;;;;;;;22.28;70.69;100108.13;1626453;88;21283;-55
2022/07/21 09:05:14;;;;;;;3.40;0.98;;;;;;;22.36;70.57;100083.98;1672049;83;21338;-58
2022/07/21 09:08:24;;;;;;;3.42;1.10;;;;;;;22.48;70.51;100083.28;1678343;83;21654;-58
2022/07/21 09:11:38;;;;;;;7.60;1.20;;;;;;;22.52;70.22;100087.25;1641049;86;21307;-56
2022/07/21 09:14:49;;;;;;;6.28;1.52;;;;;;;22.49;70.12;100087.74;1626413;88;21239;-58
2022/07/21 09:18:16;;;;;;;5.87;1.20;;;;;;;22.46;70.02;100079.90;1686256;81;21220;-58
2022/07/21 09:21:25;;;;;;;3.08;0.98;;;;;;;22.42;69.91;100080.14;1683808;84;21307;-58
2022/07/21 09:24:38;;;;;;;1.82;0.98;;;;;;;22.39;69.79;100073.69;1684022;85;21220;-58
2022/07/21 09:27:44;;;;;;;6.83;1.00;;;;;;;22.44;69.89;100068.17;1690042;83;21240;-58
2022/07/21 09:31:16;;;;;;;2.30;1.00;;;;;;;22.56;69.85;100106.03;1709834;83;21700;-57
2022/07/21 09:34:25;;;;;;;4.12;1.77;;;;;;;22.60;69.71;100065.32;1667664;85;21256;-58
2022/07/21 09:37:34;;;;;;;3.60;1.17;;;;;;;22.67;69.59;100070.70;1683981;85;21623;-57
2022/07/21 09:40:47;;;;;;;6.75;2.10;;;;;;;22.65;69.47;100063.13;1684150;85;21299;-58
2022/07/21 09:44:03;;;;;;;3.05;1.15;;;;;;;22.59;69.41;100064.19;1651350;85;21236;-59
2022/07/21 09:47:24;;;;;;;1.95;0.95;;;;;;;22.56;69.37;100059.13;1684355;84;21733;-58
2022/07/21 09:50:34;;;;;;;2.45;1.25;;;;;;;22.54;69.30;100061.34;1667054;85;21232;-57
2022/07/21 09:54:09;;;;;;;1.85;1.20;;;;;;;22.49;69.17;100041.17;1683011;84;21248;-58
2022/07/21 09:57:23;;;;;;;3.42;1.35;;;;;;;22.53;69.25;100047.11;1683560;85;21295;-58
2022/07/21 10:00:41;;;;;;;1.95;1.22;;;;;;;22.77;69.41;100035.94;1683810;84;21248;-55
2022/07/21 10:03:50;;;;;;;2.80;1.45;;;;;;;22.97;69.19;100067.69;1683668;85;21301;-53
2022/07/21 10:07:02;;;;;;;4.25;1.37;;;;;;;23.04;68.94;100055.73;1683082;85;21249;-54
2022/07/21 10:10:19;;;;;;;1.82;1.30;;;;;;;23.08;68.72;100048.53;1683258;83;21279;-54
2022/07/21 10:13:38;;;;;;;2.05;1.50;;;;;;;23.10;68.59;100044.89;1683814;83;21232;-55
2022/07/21 10:16:47;;;;;;;4.08;1.25;;;;;;;23.15;68.47;100038.54;1653265;85;21296;-53
2022/07/21 10:20:20;;;;;;;1.75;1.37;;;;;;;23.13;68.27;100037.41;1671777;82;21195;-52
2022/07/21 10:23:44;;;;;;;3.75;1.20;;;;;;;23.13;68.08;100039.34;1679065;85;21233;-53
2022/07/21 10:27:15;;;;;;;4.53;1.42;;;;;;;23.08;67.84;100041.55;1676419;83;21641;-55
2022/07/21 10:30:23;;;;;;;3.00;1.40;;;;;;;22.93;67.75;100039.17;1679942;85;21291;-53
2022/07/21 10:33:49;;;;;;;2.75;1.40;;;;;;;22.88;67.75;100042.73;1680276;85;21682;-52
2022/07/21 10:36:57;;;;;;;3.75;1.55;;;;;;;22.84;67.69;100048.56;1633376;86;21228;-53
2022/07/21 10:40:04;;;;;;;3.83;1.10;;;;;;;22.86;67.66;100034.34;1661406;83;22358;-52
2022/07/21 10:43:19;;;;;;;2.50;1.32;;;;;;;22.98;67.70;100030.81;1661999;85;21279;-52
2022/07/21 10:46:40;;;;;;;3.92;1.30;;;;;;;23.07;67.51;100032.04;1670381;84;21252;-53
2022/07/21 10:50:07;;;;;;;7.25;1.60;;;;;;;23.14;67.38;100034.04;1664419;85;21813;-53
2022/07/21 10:53:22;;;;;;;4.58;1.40;;;;;;;23.10;67.16;100044.08;1678821;84;21241;-55
2022/07/21 10:56:36;;;;;;;4.78;1.82;;;;;;;23.14;67.13;100035.44;1656589;85;21563;-53
2022/07/21 11:00:28;;;;;;;4.55;1.57;;;;;;;23.25;67.14;100026.03;1654210;85;21727;-55
2022/07/21 11:03:41;;;;;;;2.52;1.40;;;;;;;23.51;67.08;100030.20;1666149;83;21809;-53
2022/07/21 11:06:49;;;;;;;;;;;;;;;23.77;66.84;100027.00;1673199;83;21417;-54
2022/07/21 11:10:25;;;;;;;3.75;1.70;;;;;;;23.80;66.48;100027.03;1689467;83;20208;-55
2022/07/21 11:13:33;;;;;;;3.77;1.50;;;;;;;23.79;66.35;100028.13;1677366;83;21865;-54
2022/07/21 11:17:02;;;;;;;3.50;1.45;;;;;;;23.70;66.01;100033.95;1683062;83;21291;-54
2022/07/21 11:20:08;;;;;;;5.03;1.80;;;;;;;23.68;66.06;100027.23;1681672;82;21370;-55
2022/07/21 11:23:14;;;;;;;4.10;1.60;;;;;;;23.75;66.06;100032.04;1654078;85;21263;-54
2022/07/21 11:26:26;;;;;;;3.12;1.47;;;;;;;23.78;65.86;100025.91;1654583;85;21315;-55
2022/07/21 11:29:35;;;;;;;4.03;1.82;;;;;;;23.78;65.62;100030.10;1665154;85;21398;-55
2022/07/21 11:32:55;;;;;;;5.50;1.70;;;;;;;23.70;65.51;100024.16;1678752;84;21441;-55
2022/07/21 11:36:06;;;;;;;2.75;1.47;;;;;;;23.69;65.46;100034.49;1691575;83;21307;-55
2022/07/21 11:39:21;;;;;;;5.35;1.80;;;;;;;23.63;65.34;100026.64;1671997;83;21229;-54
2022/07/21 11:42:33;;;;;;;3.62;1.70;;;;;;;23.64;65.32;100016.31;1657655;85;21236;-52
2022/07/21 11:45:39;;;;;;;4.78;1.90;;;;;;;23.76;65.45;100029.52;1674354;85;21246;-54
2022/07/21 11:48:48;;;;;;;2.62;1.90;;;;;;;23.87;65.23;100020.08;1680352;85;21240;-55
2022/07/21 11:52:11;;;;;;;4.45;2.02;;;;;;;23.93;65.03;100035.77;1680540;84;21280;-55
2022/07/21 11:55:19;;;;;;;5.78;1.87;;;;;;;23.93;64.86;100016.19;1667214;85;21232;-53
2022/07/21 11:58:31;;;;;;;3.27;1.65;;;;;;;23.99;64.79;100029.11;1663216;85;21230;-53
2022/07/21 12:01:57;;;;;;;4.80;1.82;;;;;;;24.18;64.89;100019.71;1702419;82;21271;-54
2022/07/21 12:05:13;;;;;;;4.80;1.77;;;;;;;24.41;64.72;100019.23;1686349;83;21728;-54
2022/07/21 12:08:17;;;;;;;3.35;1.80;;;;;;;24.48;64.37;100022.05;1705768;83;21232;-53
2022/07/21 12:11:25;;;;;;;8.45;2.00;;;;;;;24.40;64.16;100014.21;1698970;84;21796;-53
2022/07/21 12:14:59;;;;;;;5.47;1.70;;;;;;;24.34;64.05;100011.67;1654106;86;21244;-53
2022/07/21 12:18:10;;;;;;;7.20;2.10;;;;;;;24.35;64.00;100014.19;1674533;85;21280;-54
2022/07/21 12:21:23;;;;;;;3.55;1.85;;;;;;;24.38;63.94;100012.78;1680149;81;21267;-54
2022/07/21 12:24:34;;;;;;;4.97;2.65;;;;;;;24.41;63.85;100029.88;1688039;84;21613;-54
2022/07/21 12:27:43;;;;;;;2.83;2.10;;;;;;;24.43;63.76;100019.80;1689432;83;21239;-55
2022/07/21 12:31:01;;;;;;;4.55;2.85;;;;;;;24.51;63.77;100021.52;1687990;85;21204;-56
2022/07/21 12:34:24;;;;;;;5.87;2.72;;;;;;;24.60;63.55;100022.66;1679843;85;21220;-54
2022/07/21 12:38:06;;;;;;;5.00;2.20;;;;;;;24.58;63.37;100028.23;1641855;85;21632;-53
2022/07/21 12:41:18;;;;;;;4.17;2.45;;;;;;;24.46;63.24;100022.90;1655506;85;21809;-55
2022/07/21 12:44:37;;;;;;;4.42;2.30;;;;;;;24.52;63.39;100013.94;1688810;85;21192;-54
2022/07/21 12:47:45;;;;;;;5.50;2.20;;;;;;;24.60;63.31;100012.86;1688834;83;21562;-55
2022/07/21 12:51:21;;;;;;;3.40;2.35;;;;;;;24.69;63.24;100002.83;1687177;85;21248;-53
2022/07/21 12:54:36;;;;;;;6.87;2.20;;;;;;;24.81;63.17;100000.63;1684213;84;21219;-52
2022/07/21 12:57:44;;;;;;;3.60;2.40;;;;;;;24.95;62.90;100012.11;1679720;83;21239;-56
2022/07/21 13:00:52;;;;;;;3.70;2.20;;;;;;;24.83;62.54;100002.56;1662542;86;21212;-58
2022/07/21 13:04:01;;;;;;;4.80;2.30;;;;;;;24.75;62.52;99999.48;1662516;85;21248;-54
2022/07/21 13:07:10;;;;;;;3.62;2.12;;;;;;;24.73;62.50;100004.52;1687434;83;21236;-55
2022/07/21 13:10:18;;;;;;;7.45;2.40;;;;;;;24.70;62.34;100003.13;1703722;84;21761;-54
2022/07/21 13:13:31;;;;;;;3.98;2.20;;;;;;;24.57;62.24;99994.37;1689752;83;21267;-53
2022/07/21 13:16:43;;;;;;;4.47;2.58;;;;;;;24.51;62.28;100008.92;1664016;85;21220;-55
2022/07/21 13:19:52;;;;;;;2.92;2.08;;;;;;;24.37;62.08;100006.91;1703164;83;21204;-55
2022/07/21 13:23:08;;;;;;;5.33;2.37;;;;;;;24.21;62.01;100008.83;1677879;83;21232;-55
2022/07/21 13:26:19;;;;;;;6.10;2.75;;;;;;;24.10;62.08;100011.84;1656987;84;21247;-54
2022/07/21 13:29:28;;;;;;;4.60;2.25;;;;;;;24.04;62.04;100007.34;1655445;84;21733;-53
2022/07/21 13:32:36;;;;;;;7.17;2.67;;;;;;;23.90;61.96;100005.55;1648536;84;22057;-56
2022/07/21 13:35:45;;;;;;;5.40;2.90;;;;;;;23.75;61.98;100008.28;1654968;85;21878;-53
2022/07/21 13:38:53;;;;;;;3.85;2.40;;;;;;;23.66;61.96;100004.86;1630138;86;21279;-54
2022/07/21 13:42:00;;;;;;;3.70;2.80;;;;;;;23.56;62.04;99996.68;1639010;86;21324;-56
2022/07/21 13:45:16;;;;;;;3.25;2.62;;;;;;;23.59;62.06;99995.31;1655207;86;21785;-55
2022/07/21 13:48:26;;;;;;;5.22;3.42;;;;;;;23.66;62.07;99999.28;1655448;85;21264;-55
2022/07/21 13:51:37;;;;;;;;;;;;;;;23.72;62.05;100006.58;1654877;85;21552;-55
2022/07/21 13:54:44;;;;;;;7.45;2.95;;;;;;;23.81;62.10;99994.61;1658051;85;20570;-56
2022/07/21 13:57:54;;;;;;;5.75;3.05;;;;;;;23.86;62.07;99986.80;1656707;85;21412;-55
2022/07/21 14:01:04;;;;;;;6.22;2.87;;;;;;;23.87;62.01;99994.91;1656249;85;21224;-55
2022/07/21 14:04:15;;;;;;;5.92;2.80;;;;;;;23.92;61.97;99998.28;1629838;88;21243;-55
2022/07/21 14:07:23;;;;;;;5.15;2.75;;;;;;;23.88;61.90;99993.78;1640620;85;21776;-55
2022/07/21 14:10:33;;;;;;;3.90;3.10;;;;;;;23.92;61.82;100001.94;1629184;88;21235;-55
2022/07/21 14:13:42;;;;;;;7.25;2.77;;;;;;;23.85;61.63;99993.52;1651507;86;21692;-54
2022/07/21 14:16:53;;;;;;;6.33;3.15;;;;;;;23.81;61.65;100000.20;1656643;85;21775;-55
2022/07/21 14:20:05;;;;;;;4.03;2.72;;;;;;;23.76;61.52;99997.37;1655679;86;21755;-54
2022/07/21 14:23:17;;;;;;;8.18;2.92;;;;;;;23.71;61.55;100004.87;1622287;85;21256;-56
2022/07/21 14:26:27;;;;;;;4.92;2.80;;;;;;;23.73;61.61;100006.30;1649805;85;21387;-54
2022/07/21 14:29:34;;;;;;;7.90;2.62;;;;;;;23.95;61.73;99995.80;1693204;84;21816;-55
2022/07/21 14:32:41;;;;;;;5.90;2.90;;;;;;;24.02;61.53;99994.19;1665157;84;21298;-54
2022/07/21 14:35:51;;;;;;;3.90;3.00;;;;;;;23.97;61.39;99999.20;1652185;86;21266;-54
2022/07/21 14:38:56;;;;;;;7.00;2.30;;;;;;;23.98;61.40;99989.69;1666314;85;21273;-55
2022/07/21 14:42:09;;;;;;;9.18;2.45;;;;;;;24.10;61.35;99983.29;1677287;84;21620;-55
2022/07/21 14:45:23;;;;;;;3.90;2.42;;;;;;;24.20;61.25;99985.28;1676957;85;21260;-56
2022/07/21 14:48:36;;;;;;;2.70;2.20;;;;;;;24.26;61.15;99985.03;1676546;85;21754;-57
2022/07/21 14:51:47;;;;;;;4.40;2.35;;;;;;;24.35;61.05;99976.41;1683745;84;21244;-54